createdAt,value
2023-01-22T00:00:01.408Z,94387.94
2023-01-22T00:02:49.096Z,94393.34
2023-01-22T00:05:35.246Z,94397.56
2023-01-22T00:08:21.832Z,94394.84
2023-01-22T00:11:07.818Z,94404.47
2023-01-22T00:13:53.920Z,94393.66
2023-01-22T00:16:41.374Z,94394.38
2023-01-22T00:19:27.275Z,94392.44
2023-01-22T00:22:13.471Z,94375.03
2023-01-22T00:24:59.832Z,94364.63
2023-01-22T00:27:46.125Z,94380.44
2023-01-22T00:30:32.103Z,94394.69
2023-01-22T00:33:18.309Z,94396.97
2023-01-22T00:36:05.219Z,94403.16
2023-01-22T00:38:51.640Z,94403.88
2023-01-22T00:41:37.861Z,94393.06
2023-01-22T00:44:23.727Z,94399.25
2023-01-22T00:47:10.108Z,94406.16
2023-01-22T00:49:56.203Z,94392.16
2023-01-22T00:52:42.234Z,94403.00
2023-01-22T00:55:28.706Z,94401.47
2023-01-22T00:58:14.680Z,94413.81
2023-01-22T01:01:03.936Z,94415.31
2023-01-22T01:03:50.182Z,94429.19
2023-01-22T01:06:36.395Z,94420.25
2023-01-22T01:09:22.275Z,94422.44
2023-01-22T01:12:09.393Z,94440.09
2023-01-22T01:14:56.464Z,94443.19
2023-01-22T01:17:42.880Z,94430.59
2023-01-22T01:20:28.960Z,94433.63
2023-01-22T01:23:14.947Z,94445.97
2023-01-22T01:26:04.318Z,94440.84
2023-01-22T01:28:52.540Z,94464.75
2023-01-22T01:31:38.853Z,94465.81
2023-01-22T01:34:24.735Z,94462.69
2023-01-22T01:37:10.449Z,94462.69
2023-01-22T01:39:56.558Z,94466.59
2023-01-22T01:42:42.918Z,94464.63
2023-01-22T01:45:29.942Z,94463.53
2023-01-22T01:48:20.161Z,94465.06
2023-01-22T01:51:07.561Z,94466.59
2023-01-22T01:53:53.821Z,94469.72
2023-01-22T01:56:41.383Z,94470.03
2023-01-22T01:59:27.352Z,94470.03
2023-01-22T02:02:14.196Z,94466.91
2023-01-22T02:05:00.266Z,94464.94
2023-01-22T02:07:46.561Z,94464.63
2023-01-22T02:10:33.023Z,94452.59
2023-01-22T02:13:20.134Z,94463.41
2023-01-22T02:16:07.924Z,94462.69
2023-01-22T02:18:54.014Z,94468.09
2023-01-22T02:21:43.590Z,94471.53
2023-01-22T02:24:30.095Z,94469.59
2023-01-22T02:27:16.014Z,94469.91
2023-01-22T02:30:02.081Z,94468.41
2023-01-22T02:32:48.180Z,94459.50
2023-01-22T02:35:34.425Z,94463.00
2023-01-22T02:38:20.493Z,94462.53
2023-01-22T02:41:06.908Z,94455.59
2023-01-22T02:43:53.176Z,94459.38
2023-01-22T02:46:38.930Z,94472.16
2023-01-22T02:49:25.444Z,94470.66
2023-01-22T02:52:11.431Z,94481.47
2023-01-22T02:54:57.656Z,94485.69
2023-01-22T02:57:43.668Z,94485.69
2023-01-22T03:00:30.019Z,94480.72
2023-01-22T03:03:18.308Z,94474.84
2023-01-22T03:06:04.458Z,94476.06
2023-01-22T03:08:57.264Z,94455.91
2023-01-22T03:11:44.057Z,94461.78
2023-01-22T03:14:49.064Z,94458.63
2023-01-22T03:17:53.901Z,94450.97
2023-01-22T03:20:58.950Z,94441.47
2023-01-22T03:23:46.050Z,94461.34
2023-01-22T03:26:32.036Z,94469.44
2023-01-22T03:29:18.028Z,94469.44
2023-01-22T03:32:07.487Z,94495.00
2023-01-22T03:34:53.933Z,94483.44
2023-01-22T03:37:39.986Z,94481.47
2023-01-22T03:40:26.407Z,94477.25
2023-01-22T03:43:12.841Z,94490.34
2023-01-22T03:46:06.181Z,94484.19
2023-01-22T03:48:52.490Z,94488.09
2023-01-22T03:51:38.610Z,94485.38
2023-01-22T03:54:24.743Z,94482.66
2023-01-22T03:57:10.782Z,94485.38
2023-01-22T03:59:56.919Z,94487.78
2023-01-22T04:02:43.280Z,94496.66
2023-01-22T04:05:29.625Z,94486.56
2023-01-22T04:08:15.617Z,94488.09
2023-01-22T04:11:02.036Z,94485.84
2023-01-22T04:13:48.029Z,94484.94
2023-01-22T04:16:34.402Z,94495.00
2023-01-22T04:19:20.198Z,94505.09
2023-01-22T04:22:06.514Z,94498.91
2023-01-22T04:24:52.533Z,94504.31
2023-01-22T04:27:38.803Z,94509.00
2023-01-22T04:30:25.047Z,94510.94
2023-01-22T04:33:11.080Z,94519.81
2023-01-22T04:35:57.156Z,94529.13
2023-01-22T04:38:43.255Z,94532.59
2023-01-22T04:41:29.304Z,94531.38
2023-01-22T04:44:15.176Z,94531.38
2023-01-22T04:47:01.540Z,94540.69
2023-01-22T04:49:47.525Z,94534.09
2023-01-22T04:52:33.410Z,94543.72
2023-01-22T04:55:19.508Z,94553.03
2023-01-22T04:58:05.627Z,94557.72
2023-01-22T05:00:51.631Z,94561.63
2023-01-22T05:03:37.582Z,94559.66
2023-01-22T05:06:23.686Z,94569.72
2023-01-22T05:09:09.682Z,94575.88
2023-01-22T05:11:56.057Z,94572.44
2023-01-22T05:14:42.119Z,94577.09
2023-01-22T05:17:28.506Z,94592.56
2023-01-22T05:20:14.561Z,94594.09
2023-01-22T05:23:00.545Z,94600.25
2023-01-22T05:25:49.931Z,94598.72
2023-01-22T05:28:35.818Z,94605.03
2023-01-22T05:31:23.323Z,94606.53
2023-01-22T05:34:09.567Z,94615.44
2023-01-22T05:36:55.872Z,94620.84
2023-01-22T05:39:41.769Z,94635.09
2023-01-22T05:42:28.218Z,94632.41
2023-01-22T05:45:14.359Z,94632.72
2023-01-22T05:48:00.208Z,94650.47
2023-01-22T05:50:46.430Z,94649.78
2023-01-22T05:53:32.534Z,94650.97
2023-01-22T05:56:18.877Z,94651.84
2023-01-22T05:59:05.109Z,94655.00
2023-01-22T06:01:50.988Z,94659.97
2023-01-22T06:04:36.974Z,94663.44
2023-01-22T06:07:22.907Z,94669.50
2023-01-22T06:10:09.259Z,94683.34
2023-01-22T06:12:55.603Z,94675.66
2023-01-22T06:15:43.097Z,94680.31
2023-01-22T06:18:29.392Z,94678.81
2023-01-22T06:21:15.567Z,94689.63
2023-01-22T06:24:01.565Z,94687.25
2023-01-22T06:26:47.777Z,94698.06
2023-01-22T06:29:33.648Z,94697.75
2023-01-22T06:32:19.537Z,94705.88
2023-01-22T06:35:08.181Z,94700.56
2023-01-22T06:37:54.173Z,94708.38
2023-01-22T06:40:40.501Z,94709.56
2023-01-22T06:43:26.564Z,94722.34
2023-01-22T06:46:12.604Z,94713.91
2023-01-22T06:49:01.672Z,94721.16
2023-01-22T06:51:47.985Z,94730.47
2023-01-22T06:54:34.116Z,94737.38
2023-01-22T06:57:20.102Z,94735.44
2023-01-22T07:00:06.505Z,94736.97
2023-01-22T07:02:52.646Z,94738.16
2023-01-22T07:05:38.597Z,94744.44
2023-01-22T07:08:24.706Z,94752.03
2023-01-22T07:11:10.725Z,94746.53
2023-01-22T07:13:58.591Z,94745.78
2023-01-22T07:16:44.500Z,94750.97
2023-01-22T07:19:30.801Z,94744.25
2023-01-22T07:22:17.054Z,94748.78
2023-01-22T07:25:03.479Z,94751.78
2023-01-22T07:27:49.511Z,94762.31
2023-01-22T07:30:35.731Z,94762.94
2023-01-22T07:33:22.228Z,94760.13
2023-01-22T07:36:08.308Z,94763.91
2023-01-22T07:38:54.679Z,94764.56
2023-01-22T07:41:40.898Z,94760.22
2023-01-22T07:44:27.475Z,94763.66
2023-01-22T07:47:13.369Z,94761.53
2023-01-22T07:49:59.464Z,94761.84
2023-01-22T07:52:45.822Z,94760.31
2023-01-22T07:55:31.779Z,94757.00
2023-01-22T07:58:17.997Z,94759.69
2023-01-22T08:01:07.363Z,94759.38
2023-01-22T08:03:53.556Z,94755.13
2023-01-22T08:06:39.616Z,94759.03
2023-01-22T08:09:25.958Z,94769.09
2023-01-22T08:12:11.998Z,94761.06
2023-01-22T08:16:03.985Z,94742.88
2023-01-22T08:18:50.010Z,94762.88
2023-01-22T08:21:36.245Z,94763.56
2023-01-22T08:24:22.739Z,94770.19
2023-01-22T08:27:08.980Z,94768.53
2023-01-22T08:29:55.418Z,94772.94
2023-01-22T08:32:42.134Z,94774.72
2023-01-22T08:35:28.651Z,94768.91
2023-01-22T08:38:15.195Z,94774.25
2023-01-22T08:41:01.484Z,94772.13
2023-01-22T08:43:47.540Z,94780.53
2023-01-22T08:46:36.012Z,94758.97
2023-01-22T08:49:22.533Z,94776.53
2023-01-22T08:52:08.659Z,94781.34
2023-01-22T08:54:54.873Z,94777.88
2023-01-22T08:57:40.877Z,94778.00
2023-01-22T09:00:27.604Z,94778.75
2023-01-22T09:03:14.283Z,94779.84
2023-01-22T09:06:00.206Z,94776.50
2023-01-22T09:08:46.255Z,94778.56
2023-01-22T09:11:32.335Z,94776.72
2023-01-22T09:14:17.974Z,94779.91
2023-01-22T09:17:04.057Z,94781.72
2023-01-22T09:19:50.366Z,94782.78
2023-01-22T09:22:36.669Z,94781.56
2023-01-22T09:25:22.823Z,94780.53
2023-01-22T09:28:12.179Z,94779.00
2023-01-22T09:30:58.240Z,94781.56
2023-01-22T09:33:44.214Z,94774.91
2023-01-22T09:36:30.359Z,94772.50
2023-01-22T09:39:20.583Z,94772.19
2023-01-22T09:42:06.652Z,94776.53
2023-01-22T09:44:53.962Z,94778.94
2023-01-22T09:47:47.604Z,94774.59
2023-01-22T09:50:33.769Z,94770.50
2023-01-22T09:53:20.056Z,94768.59
2023-01-22T09:56:06.474Z,94772.56
2023-01-22T09:58:52.779Z,94774.84
2023-01-22T10:01:38.868Z,94771.31
2023-01-22T10:04:35.354Z,94764.97
2023-01-22T10:07:40.452Z,94762.69
2023-01-22T10:10:26.799Z,94768.41
2023-01-22T10:13:13.090Z,94766.66
2023-01-22T10:15:59.319Z,94762.91
2023-01-22T10:18:46.513Z,94765.38
2023-01-22T10:21:34.348Z,94761.59
2023-01-22T10:24:20.292Z,94762.56
2023-01-22T10:27:10.541Z,94761.19
2023-01-22T10:30:05.620Z,94764.38
2023-01-22T10:32:58.516Z,94766.78
2023-01-22T10:35:48.255Z,94775.47
2023-01-22T10:38:34.595Z,94766.00
2023-01-22T10:41:20.750Z,94756.56
2023-01-22T10:44:10.850Z,94762.59
2023-01-22T10:47:06.670Z,94760.00
2023-01-22T10:50:25.119Z,94756.56
2023-01-22T10:53:15.471Z,94749.63
2023-01-22T10:56:02.114Z,94760.66
2023-01-22T10:58:48.831Z,94745.59
2023-01-22T11:01:35.986Z,94752.88
2023-01-22T11:04:23.580Z,94753.41
2023-01-22T11:07:12.438Z,94747.41
2023-01-22T11:10:06.611Z,94743.19
2023-01-22T11:12:59.424Z,94754.88
2023-01-22T11:15:45.568Z,94749.09
2023-01-22T11:18:42.908Z,94754.63
2023-01-22T11:21:32.288Z,94750.13
2023-01-22T11:24:22.467Z,94745.44
2023-01-22T11:27:08.560Z,94747.72
2023-01-22T11:30:21.596Z,94743.38
2023-01-22T11:33:25.848Z,94737.59
2023-01-22T11:36:17.232Z,94741.78
2023-01-22T11:39:09.285Z,94740.28
2023-01-22T11:41:55.599Z,94758.69
2023-01-22T11:44:46.069Z,94750.84
2023-01-22T11:47:43.516Z,94752.38
2023-01-22T11:50:31.186Z,94754.75
2023-01-22T11:53:35.596Z,94746.63
2023-01-22T11:56:21.863Z,94751.38
2023-01-22T11:59:13.818Z,94762.59
2023-01-22T12:01:59.982Z,94757.69
2023-01-22T12:04:52.228Z,94753.78
2023-01-22T12:07:38.232Z,94761.47
2023-01-22T12:10:33.206Z,94754.28
2023-01-22T12:13:39.546Z,94753.34
2023-01-22T12:16:29.536Z,94752.78
2023-01-22T12:19:28.178Z,94745.94
2023-01-22T12:22:14.225Z,94749.53
2023-01-22T12:25:15.979Z,94750.56
2023-01-22T12:28:18.512Z,94753.94
2023-01-22T12:31:10.901Z,94751.03
2023-01-22T12:33:57.634Z,94754.16
2023-01-22T12:36:43.876Z,94756.00
2023-01-22T12:39:30.987Z,94757.97
2023-01-22T12:42:25.442Z,94760.97
2023-01-22T12:45:17.785Z,94754.72
2023-01-22T12:48:07.095Z,94759.94
2023-01-22T12:50:54.110Z,94763.47
2023-01-22T12:53:40.474Z,94764.91
2023-01-22T12:56:30.647Z,94770.13
2023-01-22T12:59:29.382Z,94772.31
2023-01-22T13:02:18.673Z,94763.88
2023-01-22T13:05:31.056Z,94767.47
2023-01-22T13:08:17.366Z,94783.44
2023-01-22T13:11:04.886Z,94775.00
2023-01-22T13:13:52.196Z,94769.44
2023-01-22T13:16:38.340Z,94778.44
2023-01-22T13:19:28.590Z,94779.13
2023-01-22T13:22:15.942Z,94783.28
2023-01-22T13:25:02.515Z,94778.44
2023-01-22T13:27:48.400Z,94788.97
2023-01-22T13:30:34.794Z,94782.03
2023-01-22T13:33:20.617Z,94775.13
2023-01-22T13:36:10.965Z,94788.38
2023-01-22T13:38:57.820Z,94781.06
2023-01-22T13:41:43.628Z,94771.41
2023-01-22T13:44:33.842Z,94782.56
2023-01-22T13:47:34.882Z,94778.69
2023-01-22T13:50:21.452Z,94779.09
2023-01-22T13:53:22.014Z,94779.53
2023-01-22T13:56:12.729Z,94779.53
2023-01-22T13:59:25.412Z,94780.75
2023-01-22T14:02:21.864Z,94789.53
2023-01-22T14:05:16.596Z,94786.03
2023-01-22T14:08:09.842Z,94794.19
2023-01-22T14:10:56.290Z,94789.06
2023-01-22T14:13:43.703Z,94792.53
2023-01-22T14:16:39.215Z,94793.28
2023-01-22T14:19:25.060Z,94793.75
2023-01-22T14:22:11.322Z,94795.56
2023-01-22T14:24:57.493Z,94796.63
2023-01-22T14:27:49.791Z,94793.16
2023-01-22T14:30:35.736Z,94791.53
2023-01-22T14:33:28.677Z,94795.88
2023-01-22T14:36:14.638Z,94802.38
2023-01-22T14:39:00.578Z,94803.66
2023-01-22T14:41:48.404Z,94813.13
2023-01-22T14:44:34.472Z,94815.53
2023-01-22T14:47:20.823Z,94811.00
2023-01-22T14:50:06.957Z,94820.47
2023-01-22T14:52:52.882Z,94811.59
2023-01-22T14:55:38.760Z,94818.25
2023-01-22T14:58:24.710Z,94807.97
2023-01-22T15:01:17.769Z,94807.84
2023-01-22T15:04:04.756Z,94806.47
2023-01-22T15:06:50.956Z,94811.00
2023-01-22T15:09:36.920Z,94823.34
2023-01-22T15:12:23.540Z,94823.94
2023-01-22T15:15:09.586Z,94824.38
2023-01-22T15:17:57.028Z,94825.88
2023-01-22T15:20:43.368Z,94828.22
2023-01-22T15:23:29.685Z,94834.75
2023-01-22T15:26:26.515Z,94827.72
2023-01-22T15:29:12.898Z,94830.94
2023-01-22T15:31:59.264Z,94839.63
2023-01-22T15:34:45.298Z,94834.78
2023-01-22T15:37:31.381Z,94846.84
2023-01-22T15:40:17.437Z,94842.75
2023-01-22T15:43:04.057Z,94847.44
2023-01-22T15:45:49.970Z,94854.50
2023-01-22T15:48:38.040Z,94850.25
2023-01-22T15:51:23.875Z,94846.47
2023-01-22T15:54:14.737Z,94848.88
2023-01-22T15:57:00.793Z,94846.59
2023-01-22T15:59:46.781Z,94840.50
2023-01-22T16:02:33.171Z,94845.31
2023-01-22T16:05:21.271Z,94845.13
2023-01-22T16:08:07.544Z,94851.94
2023-01-22T16:10:53.718Z,94851.44
2023-01-22T16:13:40.293Z,94851.22
2023-01-22T16:16:27.071Z,94853.63
2023-01-22T16:19:16.194Z,94863.06
2023-01-22T16:22:02.488Z,94851.34
2023-01-22T16:24:48.444Z,94853.63
2023-01-22T16:27:34.537Z,94862.94
2023-01-22T16:30:20.881Z,94865.34
2023-01-22T16:33:15.790Z,94871.09
2023-01-22T16:36:05.046Z,94871.41
2023-01-22T16:38:51.121Z,94865.22
2023-01-22T16:41:37.107Z,94874.88
2023-01-22T16:44:30.147Z,94865.22
2023-01-22T16:47:17.551Z,94870.19
2023-01-22T16:50:03.928Z,94869.78
2023-01-22T16:52:50.267Z,94886.91
2023-01-22T16:55:36.517Z,94883.84
2023-01-22T16:58:22.858Z,94889.41
2023-01-22T17:01:08.861Z,94888.53
2023-01-22T17:03:54.859Z,94889.31
2023-01-22T17:06:44.972Z,94889.56
2023-01-22T17:09:32.432Z,94885.66
2023-01-22T17:12:18.300Z,94887.16
2023-01-22T17:15:04.405Z,94888.72
2023-01-22T17:17:50.286Z,94881.34
2023-01-22T17:20:36.775Z,94884.34
2023-01-22T17:23:23.123Z,94874.47
2023-01-22T17:26:10.673Z,94884.81
2023-01-22T17:28:56.690Z,94893.38
2023-01-22T17:31:42.837Z,94887.22
2023-01-22T17:34:29.238Z,94893.38
2023-01-22T17:37:15.114Z,94912.34
2023-01-22T17:40:01.233Z,94901.94
2023-01-22T17:42:47.395Z,94895.56
2023-01-22T17:45:33.701Z,94899.69
2023-01-22T17:48:19.629Z,94904.00
2023-01-22T17:51:06.862Z,94915.16
2023-01-22T17:53:54.688Z,94920.81
2023-01-22T17:56:43.144Z,94924.72
2023-01-22T17:59:29.267Z,94929.59
2023-01-22T18:02:15.379Z,94944.50
2023-01-22T18:05:01.375Z,94931.72
2023-01-22T18:07:47.716Z,94947.19
2023-01-22T18:10:34.166Z,94941.91
2023-01-22T18:13:20.427Z,94953.25
2023-01-22T18:16:07.325Z,94950.22
2023-01-22T18:18:53.296Z,94953.41
2023-01-22T18:21:39.425Z,94960.44
2023-01-22T18:24:26.513Z,94948.41
2023-01-22T18:27:12.623Z,94956.94
2023-01-22T18:29:58.384Z,94953.91
2023-01-22T18:32:44.725Z,94954.78
2023-01-22T18:35:34.581Z,94945.94
2023-01-22T18:38:26.558Z,94946.78
2023-01-22T18:41:16.592Z,94955.66
2023-01-22T18:44:03.162Z,94960.22
2023-01-22T18:46:51.780Z,94962.03
2023-01-22T18:49:38.126Z,94969.66
2023-01-22T18:52:25.541Z,94965.28
2023-01-22T18:55:11.847Z,94962.81
2023-01-22T18:58:07.992Z,94969.53
2023-01-22T19:00:55.427Z,94971.28
2023-01-22T19:03:42.138Z,94958.19
2023-01-22T19:06:29.908Z,94971.59
2023-01-22T19:09:16.351Z,94973.56
2023-01-22T19:12:02.309Z,94965.75
2023-01-22T19:14:49.620Z,94975.81
2023-01-22T19:17:35.578Z,94980.03
2023-01-22T19:20:22.022Z,94978.84
2023-01-22T19:23:09.197Z,94980.03
2023-01-22T19:25:57.158Z,94981.44
2023-01-22T19:28:43.436Z,94968.44
2023-01-22T19:31:30.608Z,94959.56
2023-01-22T19:34:23.655Z,94960.31
2023-01-22T19:37:09.864Z,94969.94
2023-01-22T19:39:59.088Z,94966.41
2023-01-22T19:42:46.983Z,94972.44
2023-01-22T19:45:35.534Z,94970.94
2023-01-22T19:48:22.213Z,94961.31
2023-01-22T19:51:09.580Z,94959.00
2023-01-22T19:53:56.153Z,94967.91
2023-01-22T19:56:44.698Z,94962.91
2023-01-22T19:59:31.667Z,94959.63
2023-01-22T20:02:20.807Z,94962.25
2023-01-22T20:05:07.232Z,94960.25
2023-01-22T20:07:55.779Z,94963.00
2023-01-22T20:10:42.071Z,94960.59
2023-01-22T20:13:28.015Z,94962.97
2023-01-22T20:16:24.112Z,94954.97
2023-01-22T20:19:10.328Z,94955.72
2023-01-22T20:21:56.814Z,94958.13
2023-01-22T20:24:44.182Z,94961.13
2023-01-22T20:27:31.066Z,94958.91
2023-01-22T20:30:17.115Z,94959.44
2023-01-22T20:33:03.153Z,94953.41
2023-01-22T20:35:49.538Z,94963.53
2023-01-22T20:38:35.713Z,94956.31
2023-01-22T20:41:22.023Z,94952.28
2023-01-22T20:44:09.334Z,94947.72
2023-01-22T20:46:56.369Z,94947.84
2023-01-22T20:49:42.593Z,94940.03
2023-01-22T20:52:28.871Z,94948.25
2023-01-22T20:55:15.706Z,94950.56
2023-01-22T20:58:01.891Z,94956.34
2023-01-22T21:00:48.007Z,94953.09
2023-01-22T21:03:34.157Z,94957.66
2023-01-22T21:06:20.855Z,94954.41
2023-01-22T21:09:06.990Z,94952.47
2023-01-22T21:11:53.444Z,94968.22
2023-01-22T21:14:39.646Z,94965.59
2023-01-22T21:17:25.613Z,94962.59
2023-01-22T21:20:12.154Z,94962.25
2023-01-22T21:22:58.168Z,94963.22
2023-01-22T21:25:44.375Z,94957.97
2023-01-22T21:28:30.841Z,94952.81
2023-01-22T21:31:18.301Z,94956.28
2023-01-22T21:34:05.007Z,94955.34
2023-01-22T21:36:58.735Z,94953.50
2023-01-22T21:39:45.172Z,94953.13
2023-01-22T21:42:50.082Z,94948.09
2023-01-22T21:45:57.540Z,94945.13
2023-01-22T21:48:43.448Z,94950.13
2023-01-22T21:51:29.698Z,94952.31
2023-01-22T21:54:20.301Z,94959.03
2023-01-22T21:57:06.419Z,94960.63
2023-01-22T21:59:52.504Z,94948.50
2023-01-22T22:02:39.035Z,94952.50
2023-01-22T22:05:25.319Z,94957.59
2023-01-22T22:08:11.191Z,94947.31
2023-01-22T22:10:57.552Z,94950.59
2023-01-22T22:13:43.907Z,94956.88
2023-01-22T22:16:30.243Z,94952.31
2023-01-22T22:19:16.973Z,94958.38
2023-01-22T22:22:03.188Z,94960.19
2023-01-22T22:24:49.069Z,94959.59
2023-01-22T22:27:35.373Z,94956.00
2023-01-22T22:30:21.714Z,94956.75
2023-01-22T22:33:07.918Z,94956.53
2023-01-22T22:35:54.276Z,94955.78
2023-01-22T22:38:40.461Z,94960.97
2023-01-22T22:41:27.263Z,94957.06
2023-01-22T22:44:15.071Z,94957.31
2023-01-22T22:47:01.039Z,94947.66
2023-01-22T22:49:47.454Z,94953.50
2023-01-22T22:52:33.747Z,94946.88
2023-01-22T22:55:19.390Z,94953.41
2023-01-22T22:58:05.675Z,94944.84
2023-01-22T23:00:51.627Z,94957.72
2023-01-22T23:03:37.838Z,94952.09
2023-01-22T23:06:26.391Z,94946.91
2023-01-22T23:09:14.385Z,94952.41
2023-01-22T23:12:00.359Z,94957.41
2023-01-22T23:14:46.426Z,94955.97
2023-01-22T23:17:32.330Z,94947.00
2023-01-22T23:20:19.682Z,94961.16
2023-01-22T23:23:05.733Z,94953.72
2023-01-22T23:25:52.169Z,94953.81
2023-01-22T23:28:38.722Z,94961.50
2023-01-22T23:31:25.017Z,94965.28
2023-01-22T23:34:11.694Z,94968.41
2023-01-22T23:36:57.881Z,94964.97
2023-01-22T23:39:46.108Z,94961.06
2023-01-22T23:42:32.324Z,94971.06
2023-01-22T23:45:18.292Z,94962.03
2023-01-22T23:48:04.727Z,94959.63
2023-01-22T23:50:51.114Z,94963.28
2023-01-22T23:53:37.622Z,94962.88
2023-01-22T23:56:24.774Z,94957.53
2023-01-22T23:59:11.107Z,94945.22
